Time;durP1;ratioP1;P1;durP2;ratioP2;P2;SDS_P1;SDS_P2;PMS_P1;PMS_P2;Temp;Humidity;BMP_temperature;BMP_pressure;BME280_temperature;BME280_humidity;BME280_pressure;Samples;Min_cycle;Max_cycle;Signal;HPM_P1;HPM_P2
2021/12/23 00:00:28;;;;;;;51.57;29.67;;;;;;;-4.95;67.81;99468.41;5087188;28;20231;-63
2021/12/23 00:02:55;;;;;;;52.83;30.63;;;;;;;-4.42;65.12;99456.06;5086347;28;20264;-63
2021/12/23 00:05:22;;;;;;;49.37;28.83;;;;;;;-6.75;69.46;99392.28;5086553;28;20234;-63
2021/12/23 00:07:49;;;;;;;49.57;29.80;;;;;;;-7.80;74.81;99424.47;5085600;28;20224;-63
2021/12/23 00:10:16;;;;;;;47.97;28.57;;;;;;;-6.13;72.16;99468.13;5085453;28;20225;-63
2021/12/23 00:12:45;;;;;;;48.23;27.93;;;;;;;-5.64;70.50;99461.50;5081524;28;20233;-63
2021/12/23 00:15:28;;;;;;;48.17;27.40;;;;;;;-5.71;67.92;99424.59;5085629;28;20234;-63
2021/12/23 00:25:49;;;;;;;42.13;29.33;;;;;;;-7.42;72.07;99407.34;5081943;28;20222;-63
2021/12/23 00:28:17;;;;;;;45.90;27.80;;;;;;;-7.11;73.03;99428.50;5077926;28;20225;-63
2021/12/23 00:30:44;;;;;;;44.63;27.83;;;;;;;-7.79;74.67;99405.47;5086167;28;20233;-63
2021/12/23 00:33:11;;;;;;;41.77;25.63;;;;;;;-7.70;73.71;99399.88;5085891;28;20222;-63
2021/12/23 00:35:39;;;;;;;43.07;25.10;;;;;;;-8.40;76.73;99385.47;5086327;28;20229;-63
2021/12/23 00:38:16;;;;;;;42.43;25.77;;;;;;;-7.88;75.67;99398.91;5083652;28;20227;-63
2021/12/23 00:40:43;;;;;;;42.93;26.73;;;;;;;-8.21;77.26;99390.78;5062451;28;20233;-63
2021/12/23 00:43:10;;;;;;;42.40;24.83;;;;;;;-7.81;75.94;99410.72;5066447;28;20218;-63
2021/12/23 00:45:37;;;;;;;40.30;25.83;;;;;;;-7.72;75.31;99393.09;5085999;28;20235;-63
2021/12/23 00:48:04;;;;;;;42.70;26.40;;;;;;;-7.61;75.41;99391.75;5083679;28;20218;-63
2021/12/23 00:50:31;;;;;;;42.63;26.03;;;;;;;-8.09;76.60;99372.16;5068620;28;20234;-63
2021/12/23 00:53:00;;;;;;;39.83;24.10;;;;;;;-7.58;76.58;99394.19;5069001;28;20226;-63
2021/12/23 00:55:27;;;;;;;39.40;25.27;;;;;;;-8.06;76.58;99369.44;5086327;28;20223;-63
2021/12/23 00:57:54;;;;;;;41.33;23.27;;;;;;;-9.02;79.45;99322.31;5082301;28;20249;-63
2021/12/23 01:00:21;;;;;;;41.60;23.60;;;;;;;-8.59;79.58;99357.72;5084880;28;20228;-62
2021/12/23 01:02:49;;;;;;;39.90;25.40;;;;;;;-8.35;77.73;99342.13;5085372;28;20222;-63
2021/12/23 01:05:19;;;;;;;42.00;24.63;;;;;;;-8.48;79.21;99352.16;5086174;28;20222;-63
2021/12/23 01:07:46;;;;;;;38.20;22.13;;;;;;;-7.93;77.62;99362.00;5084193;28;20231;-64
2021/12/23 01:10:14;;;;;;;39.73;23.53;;;;;;;-6.13;73.67;99379.84;5084492;28;20225;-63
2021/12/23 01:12:47;;;;;;;41.17;24.37;;;;;;;-5.30;68.85;99351.44;5065161;28;20236;-63
2021/12/23 01:15:27;;;;;;;44.43;26.17;;;;;;;-4.80;66.36;99349.69;5083253;28;20223;-62
2021/12/23 01:17:56;;;;;;;45.97;24.90;;;;;;;-4.94;66.41;99329.63;5082743;28;20233;-63
2021/12/23 01:20:31;;;;;;;41.73;25.83;;;;;;;-4.96;65.93;99327.09;5081997;28;20230;-63
2021/12/23 01:23:04;;;;;;;43.43;27.00;;;;;;;-5.10;66.73;99315.75;5086278;28;20218;-63
2021/12/23 01:25:33;;;;;;;52.60;28.03;;;;;;;-4.94;65.30;99324.41;5067884;28;20220;-63
2021/12/23 01:28:01;;;;;;;47.53;26.17;;;;;;;-4.37;65.24;99336.03;5083628;28;20256;-63
2021/12/23 01:30:28;;;;;;;53.47;27.03;;;;;;;-4.80;66.27;99334.06;5086059;28;20228;-63
2021/12/23 01:32:56;;;;;;;53.43;28.30;;;;;;;-5.57;68.22;99330.31;5084762;28;20232;-63
2021/12/23 01:35:26;;;;;;;47.30;27.17;;;;;;;-4.79;64.94;99328.78;5086849;28;20240;-63
2021/12/23 01:37:54;;;;;;;47.40;28.47;;;;;;;-4.54;65.38;99335.22;5085475;28;20227;-63
2021/12/23 01:40:24;;;;;;;50.10;27.10;;;;;;;-4.49;65.73;99343.59;5084818;28;20241;-63
2021/12/23 01:42:51;;;;;;;46.77;25.43;;;;;;;-5.51;67.04;99302.25;5084393;28;20236;-63
2021/12/23 01:45:21;;;;;;;49.67;25.80;;;;;;;-7.28;74.16;99307.41;5085438;28;20230;-63
2021/12/23 01:47:51;;;;;;;46.13;25.40;;;;;;;-8.00;79.15;99348.47;5085707;28;20224;-63
2021/12/23 01:50:27;;;;;;;58.03;26.70;;;;;;;-8.13;80.92;99350.72;5085763;28;20221;-63
2021/12/23 01:52:56;;;;;;;45.80;25.53;;;;;;;-6.71;78.43;99361.88;5083242;28;20610;-63
2021/12/23 01:55:24;;;;;;;64.27;25.47;;;;;;;-7.54;79.30;99343.09;5066511;28;20276;-63
2021/12/23 01:57:52;;;;;;;74.47;26.27;;;;;;;-8.16;81.10;99319.78;5086584;28;20266;-63
2021/12/23 02:00:22;;;;;;;43.70;25.73;;;;;;;-8.04;82.07;99335.72;5089209;28;20219;-63
2021/12/23 02:02:50;;;;;;;54.40;25.13;;;;;;;-6.94;81.55;99366.34;5089912;28;20667;-63
2021/12/23 02:05:18;;;;;;;84.57;26.20;;;;;;;-7.89;80.71;99310.91;5089150;28;20213;-63
2021/12/23 02:07:45;;;;;;;112.93;27.73;;;;;;;-7.43;78.91;99321.91;5089018;28;20228;-63
2021/12/23 02:10:13;;;;;;;62.57;24.80;;;;;;;-5.62;76.42;99340.13;5088623;28;20234;-63
2021/12/23 02:12:47;;;;;;;64.27;26.93;;;;;;;-6.30;76.78;99333.09;5088653;28;20221;-63
2021/12/23 02:15:16;;;;;;;73.00;26.73;;;;;;;-5.21;73.24;99329.34;5080634;28;20229;-63
2021/12/23 02:17:45;;;;;;;58.50;27.13;;;;;;;-4.77;70.59;99315.69;5087036;28;20232;-63
2021/12/23 02:20:15;;;;;;;52.27;26.00;;;;;;;-6.79;74.53;99275.78;5080721;28;20234;-63
2021/12/23 02:22:43;;;;;;;54.87;25.10;;;;;;;-5.81;75.72;99329.84;5088010;28;20226;-63
2021/12/23 02:25:11;;;;;;;70.83;26.47;;;;;;;-5.48;72.73;99300.41;5069113;28;20220;-63
2021/12/23 02:27:39;;;;;;;51.10;25.07;;;;;;;-4.67;70.24;99303.84;5089039;28;20230;-63
2021/12/23 02:30:10;;;;;;;58.17;27.00;;;;;;;-7.29;77.69;99285.00;5088416;28;20224;-63
2021/12/23 02:32:39;;;;;;;50.13;25.43;;;;;;;-6.85;76.14;99284.69;5089690;28;20743;-63
2021/12/23 02:35:11;;;;;;;54.60;25.47;;;;;;;-6.60;79.09;99330.22;5072533;28;20229;-63
2021/12/23 02:37:39;;;;;;;47.47;25.50;;;;;;;-4.67;70.73;99293.44;5088987;28;20225;-63
2021/12/23 02:40:07;;;;;;;52.73;23.27;;;;;;;-7.66;76.87;99251.22;5089077;28;20604;-64
2021/12/23 02:42:34;;;;;;;64.47;25.93;;;;;;;-5.61;73.91;99287.25;5071532;28;20223;-63
2021/12/23 02:45:04;;;;;;;46.13;26.43;;;;;;;-7.73;80.19;99274.88;5071200;28;20256;-63
2021/12/23 02:47:31;;;;;;;50.17;27.07;;;;;;;-6.65;79.26;99309.69;5089152;28;20725;-64
2021/12/23 02:49:58;;;;;;;66.60;26.20;;;;;;;-5.86;73.90;99272.06;5088637;28;20236;-63
2021/12/23 02:52:25;;;;;;;43.70;26.70;;;;;;;-5.27;73.32;99285.44;5088551;28;20220;-63
2021/12/23 02:54:57;;;;;;;47.10;25.80;;;;;;;-6.76;74.98;99253.13;5081777;28;20603;-63
2021/12/23 02:57:25;;;;;;;49.73;25.57;;;;;;;-7.05;79.00;99283.00;5089058;28;20232;-63
2021/12/23 02:59:52;;;;;;;50.10;24.60;;;;;;;-7.15;80.73;99300.78;5071387;28;20261;-63
2021/12/23 03:02:19;;;;;;;55.43;23.33;;;;;;;-7.32;79.76;99256.63;5087522;28;20222;-63
2021/12/23 03:04:46;;;;;;;43.17;23.60;;;;;;;-7.35;80.32;99256.75;5087997;28;20886;-63
2021/12/23 03:07:14;;;;;;;52.73;23.53;;;;;;;-5.99;78.58;99282.25;5086399;28;20230;-63
2021/12/23 03:09:46;;;;;;;39.93;22.53;;;;;;;-6.70;76.52;99246.78;5086191;28;20302;-63
2021/12/23 03:12:13;;;;;;;40.67;21.67;;;;;;;-7.43;80.72;99244.16;5081616;28;20223;-63
2021/12/23 03:14:40;;;;;;;37.67;22.47;;;;;;;-6.99;81.35;99267.19;5088772;28;20590;-63
2021/12/23 03:17:08;;;;;;;38.63;23.67;;;;;;;-7.21;81.32;99265.59;5088730;28;20229;-63
2021/12/23 03:19:34;;;;;;;42.17;21.90;;;;;;;-7.50;82.24;99256.56;5089565;28;20236;-64
2021/12/23 03:22:02;;;;;;;38.40;24.67;;;;;;;-6.30;78.68;99274.22;5088518;28;20226;-64
2021/12/23 03:24:29;;;;;;;39.93;23.57;;;;;;;-6.93;77.30;99222.81;5085610;28;20230;-64
2021/12/23 03:26:56;;;;;;;44.57;25.03;;;;;;;-5.58;76.10;99237.72;5086529;28;20727;-63
2021/12/23 03:29:23;;;;;;;52.17;23.10;;;;;;;-6.45;75.88;99234.28;5087988;28;20780;-64
2021/12/23 03:31:50;;;;;;;54.37;23.27;;;;;;;-6.68;75.88;99213.84;5086623;28;20879;-63
2021/12/23 03:34:17;;;;;;;42.73;23.07;;;;;;;-6.81;79.21;99255.09;5086397;28;20217;-63
2021/12/23 03:36:44;;;;;;;38.87;22.70;;;;;;;-6.60;76.05;99223.84;5087002;28;20235;-64
2021/12/23 03:39:11;;;;;;;40.07;23.67;;;;;;;-6.87;77.94;99221.69;5050467;28;20780;-63
2021/12/23 03:41:38;;;;;;;40.10;24.30;;;;;;;-5.50;74.41;99238.09;5084729;28;20229;-63
2021/12/23 03:44:05;;;;;;;37.30;21.87;;;;;;;-6.08;73.14;99214.25;5081368;28;20233;-63
2021/12/23 03:46:32;;;;;;;37.20;23.97;;;;;;;-6.42;76.68;99230.72;5086113;28;20217;-64
2021/12/23 03:48:59;;;;;;;40.57;22.83;;;;;;;-6.68;78.94;99240.63;5085228;28;20228;-63
2021/12/23 03:51:26;;;;;;;46.07;24.60;;;;;;;-6.76;79.50;99240.16;5086123;28;20252;-63
2021/12/23 03:53:53;;;;;;;40.00;23.67;;;;;;;-6.74;77.78;99222.75;5087168;28;20888;-63
2021/12/23 03:56:20;;;;;;;37.93;22.20;;;;;;;-5.77;77.25;99243.00;5085561;28;20226;-63
2021/12/23 03:58:47;;;;;;;76.00;25.03;;;;;;;-6.98;77.89;99214.44;5084474;28;20797;-63
2021/12/23 04:01:14;;;;;;;44.23;24.03;;;;;;;-7.59;81.29;99220.69;5076914;28;20607;-63
2021/12/23 04:03:42;;;;;;;43.00;23.80;;;;;;;-7.15;81.61;99225.59;5050782;28;20232;-63
2021/12/23 04:06:09;;;;;;;41.90;23.77;;;;;;;-7.08;81.19;99226.16;5085599;28;20232;-63
2021/12/23 04:08:36;;;;;;;40.13;23.97;;;;;;;-5.19;75.07;99219.09;5084536;28;20240;-63
2021/12/23 04:11:02;;;;;;;40.17;24.17;;;;;;;-4.30;71.43;99213.22;5087052;28;20226;-64
2021/12/23 04:13:29;;;;;;;44.93;25.50;;;;;;;-4.09;69.13;99192.03;5087221;28;20812;-64
2021/12/23 04:15:56;;;;;;;49.83;27.80;;;;;;;-3.53;67.57;99195.53;5084549;28;20214;-63
2021/12/23 04:18:23;;;;;;;59.80;27.27;;;;;;;-4.14;68.09;99183.66;5084899;28;20251;-63
2021/12/23 04:20:53;;;;;;;54.23;26.93;;;;;;;-3.97;69.21;99195.66;5085451;28;20263;-63
2021/12/23 04:23:26;;;;;;;47.13;27.00;;;;;;;-3.72;68.03;99206.28;5070873;28;20229;-63
2021/12/23 04:25:55;;;;;;;52.07;26.20;;;;;;;-3.28;66.03;99205.28;5084214;28;20236;-63
2021/12/23 04:28:23;;;;;;;44.77;25.07;;;;;;;-4.50;69.51;99200.53;5085843;28;20224;-63
2021/12/23 04:30:51;;;;;;;46.77;26.80;;;;;;;-4.23;70.43;99208.50;5084509;28;20688;-63
2021/12/23 04:33:18;;;;;;;54.07;26.70;;;;;;;-5.33;71.24;99169.63;5083961;28;20230;-63
2021/12/23 04:35:45;;;;;;;49.27;27.23;;;;;;;-4.80;72.37;99202.19;5086653;28;20735;-69
2021/12/23 04:38:12;;;;;;;53.47;28.03;;;;;;;-4.85;71.04;99179.97;5082576;28;20237;-66
2021/12/23 04:40:39;;;;;;;63.50;27.40;;;;;;;-4.36;70.80;99207.53;5086925;28;20232;-66
2021/12/23 04:43:08;;;;;;;53.97;26.53;;;;;;;-3.54;68.06;99198.28;5064479;28;20220;-66
2021/12/23 04:45:36;;;;;;;54.43;28.17;;;;;;;-4.30;69.04;99170.69;5084800;28;20230;-64
2021/12/23 04:48:03;;;;;;;50.87;26.20;;;;;;;-4.27;70.15;99196.56;5084610;28;20234;-63
2021/12/23 04:50:31;;;;;;;50.53;26.23;;;;;;;-3.66;67.74;99185.06;5067377;28;20225;-64
2021/12/23 04:52:58;;;;;;;55.07;26.23;;;;;;;-5.73;72.20;99156.22;5087183;28;20226;-63
2021/12/23 04:55:25;;;;;;;55.53;26.07;;;;;;;-6.52;78.34;99196.59;5067973;28;20234;-64
2021/12/23 04:57:51;;;;;;;54.73;27.03;;;;;;;-4.30;71.55;99187.19;5081141;28;20311;-63
2021/12/23 05:02:47;;;;;;;77.40;27.50;;;;;;;-5.59;74.52;99145.88;5060708;27;20304;-64
2021/12/23 05:05:16;;;;;;;67.07;27.63;;;;;;;-5.33;75.21;99162.66;5051940;28;20599;-64
2021/12/23 05:07:44;;;;;;;51.27;25.97;;;;;;;-6.99;78.75;99124.56;5066787;28;20240;-64
2021/12/23 05:10:12;;;;;;;54.07;27.60;;;;;;;-6.83;81.40;99166.16;5045880;28;20224;-64
2021/12/23 05:12:44;;;;;;;54.20;29.33;;;;;;;-5.20;75.30;99135.97;5041568;28;20225;-64
2021/12/23 05:15:14;;;;;;;57.13;28.40;;;;;;;-6.02;76.74;99136.97;5041231;28;20352;-64
2021/12/23 05:17:41;;;;;;;52.27;29.17;;;;;;;-6.62;79.37;99135.72;5040610;28;20222;-64
2021/12/23 05:20:11;;;;;;;57.47;28.67;;;;;;;-6.17;77.41;99125.66;5040231;28;20224;-64
2021/12/23 05:22:38;;;;;;;50.87;27.90;;;;;;;-5.56;78.65;99161.31;5040043;28;20231;-64
2021/12/23 05:25:07;;;;;;;51.33;27.23;;;;;;;-6.70;79.14;99125.72;5041008;28;20222;-64
2021/12/23 05:27:34;;;;;;;58.43;28.03;;;;;;;-6.31;76.79;99122.00;5039991;28;20882;-63
2021/12/23 05:30:02;;;;;;;48.73;28.50;;;;;;;-5.78;75.24;99114.88;5040278;28;20222;-64
2021/12/23 05:32:30;;;;;;;48.23;27.17;;;;;;;-6.05;79.43;99157.91;5041114;28;20896;-64
2021/12/23 05:34:57;;;;;;;48.07;27.43;;;;;;;-4.48;72.88;99149.22;5039489;28;20733;-64
2021/12/23 05:37:24;;;;;;;52.83;28.93;;;;;;;-3.97;68.70;99112.28;5032579;28;20231;-64
2021/12/23 05:39:51;;;;;;;51.17;26.93;;;;;;;-3.46;68.21;99118.63;5039016;28;20235;-64
2021/12/23 05:42:18;;;;;;;57.60;28.70;;;;;;;-3.97;68.81;99109.69;5038626;28;20803;-65
2021/12/23 05:44:45;;;;;;;52.20;28.50;;;;;;;-3.50;68.03;99104.09;5034996;28;20235;-64
2021/12/23 05:47:12;;;;;;;53.67;28.00;;;;;;;-4.07;69.24;99102.41;5039675;28;20232;-64
2021/12/23 05:49:39;;;;;;;46.10;25.77;;;;;;;-6.24;75.52;99101.75;5040236;28;20235;-64
2021/12/23 05:52:06;;;;;;;52.33;29.00;;;;;;;-6.12;75.69;99114.09;5039810;28;20223;-64
2021/12/23 05:54:33;;;;;;;49.37;28.33;;;;;;;-5.39;73.44;99117.97;5039476;28;20224;-64
2021/12/23 05:57:03;;;;;;;54.23;28.00;;;;;;;-4.92;72.57;99121.41;5042451;28;20224;-65
2021/12/23 05:59:32;;;;;;;47.27;26.87;;;;;;;-4.32;70.58;99112.66;5041428;28;20237;-62
2021/12/23 06:02:04;;;;;;;51.17;27.97;;;;;;;-4.02;69.57;99109.97;5042078;28;20232;-62
2021/12/23 06:04:35;;;;;;;48.80;26.77;;;;;;;-4.52;68.54;99080.00;5040909;28;20226;-62
2021/12/23 06:07:03;;;;;;;51.40;27.30;;;;;;;-4.79;69.98;99094.59;5042174;28;20236;-62
2021/12/23 06:09:30;;;;;;;50.63;29.07;;;;;;;-4.60;71.86;99122.97;5041435;28;20234;-62
2021/12/23 06:11:57;;;;;;;47.67;27.93;;;;;;;-3.77;67.88;99105.84;5040603;28;20240;-62
2021/12/23 06:14:24;;;;;;;47.90;28.37;;;;;;;-3.69;68.72;99103.59;5023595;28;20221;-62
2021/12/23 06:16:51;;;;;;;53.77;28.43;;;;;;;-4.71;70.56;99108.91;5026535;28;20227;-62
2021/12/23 06:19:18;;;;;;;52.33;28.50;;;;;;;-5.44;71.51;99097.44;5027402;28;20228;-62
2021/12/23 06:21:45;;;;;;;53.67;27.57;;;;;;;-6.16;75.78;99138.53;5026282;28;20890;-62
2021/12/23 06:24:12;;;;;;;47.13;27.17;;;;;;;-3.90;69.95;99124.00;5028528;28;20216;-62
2021/12/23 06:26:39;;;;;;;53.40;27.60;;;;;;;-3.91;68.66;99119.75;5026363;28;20237;-61
2021/12/23 06:29:06;;;;;;;56.20;28.03;;;;;;;-5.98;75.22;99131.53;5026926;28;20232;-62
2021/12/23 06:31:34;;;;;;;49.67;27.37;;;;;;;-4.86;71.07;99108.03;5028718;28;20698;-62
2021/12/23 06:34:01;;;;;;;50.57;27.97;;;;;;;-3.82;68.29;99124.38;5027578;28;20339;-62
2021/12/23 06:36:28;;;;;;;56.10;29.53;;;;;;;-3.71;67.13;99114.13;5025876;28;20230;-62
2021/12/23 06:38:57;;;;;;;45.47;27.53;;;;;;;-4.28;68.50;99101.16;5027840;28;20242;-62
2021/12/23 06:41:24;;;;;;;56.03;29.00;;;;;;;-4.74;71.41;99102.13;5023950;28;20230;-62
2021/12/23 06:43:51;;;;;;;52.77;26.97;;;;;;;-3.50;67.51;99118.91;5026974;28;20715;-63
2021/12/23 06:46:18;;;;;;;50.40;27.70;;;;;;;-3.21;65.97;99119.63;5022135;28;20229;-62
2021/12/23 06:48:45;;;;;;;52.97;28.37;;;;;;;-3.63;65.48;99091.94;5019524;28;20239;-62
2021/12/23 06:51:12;;;;;;;51.20;27.10;;;;;;;-4.29;68.89;99087.28;5024394;28;20223;-62
2021/12/23 06:53:39;;;;;;;51.37;27.30;;;;;;;-3.33;65.83;99105.63;5027592;28;20230;-62
2021/12/23 06:56:06;;;;;;;54.20;28.97;;;;;;;-2.81;63.48;99106.59;5026297;28;20231;-62
2021/12/23 06:58:35;;;;;;;47.90;27.60;;;;;;;-3.89;67.11;99092.66;5024440;28;20242;-62
2021/12/23 07:01:02;;;;;;;48.97;27.33;;;;;;;-4.73;69.89;99085.56;5027233;28;20250;-62
2021/12/23 07:03:47;;;;;;;50.63;27.40;;;;;;;-5.42;71.39;99072.19;5026538;28;20235;-61
2021/12/23 07:06:19;;;;;;;47.20;27.27;;;;;;;-4.63;69.64;99097.09;5015739;28;20217;-62
2021/12/23 07:08:45;;;;;;;56.93;29.67;;;;;;;-6.30;75.36;99102.91;5024927;28;20239;-62
2021/12/23 07:11:12;;;;;;;55.63;29.60;;;;;;;-4.59;71.69;99134.19;5028356;28;20897;-61
2021/12/23 07:13:39;;;;;;;44.17;27.07;;;;;;;-4.81;69.50;99104.25;5029209;28;20230;-63
2021/12/23 07:16:07;;;;;;;50.10;27.87;;;;;;;-3.66;66.69;99127.69;5030842;28;20239;-62
2021/12/23 07:18:34;;;;;;;49.37;27.90;;;;;;;-4.73;70.59;99115.97;5030412;28;20237;-63
2021/12/23 07:21:01;;;;;;;46.90;27.63;;;;;;;-5.12;70.96;99101.75;5025723;28;20234;-63
2021/12/23 07:23:28;;;;;;;54.67;28.83;;;;;;;-4.68;69.98;99108.72;5025195;28;20223;-62
2021/12/23 07:25:55;;;;;;;50.00;28.50;;;;;;;-4.93;70.74;99102.34;5026038;28;20232;-63
2021/12/23 07:28:24;;;;;;;47.33;27.03;;;;;;;-4.05;67.23;99095.38;5027108;28;20226;-62
2021/12/23 07:30:52;;;;;;;48.63;28.33;;;;;;;-4.02;67.88;99100.41;5018774;28;20687;-62
2021/12/23 07:33:19;;;;;;;57.57;31.07;;;;;;;-6.26;73.15;99057.72;5037317;28;20229;-63
2021/12/23 07:35:46;;;;;;;60.30;31.07;;;;;;;-6.35;74.41;99084.13;5018550;28;20558;-63
2021/12/23 07:38:13;;;;;;;49.73;27.00;;;;;;;-7.07;78.07;99091.25;5025280;28;20695;-63
2021/12/23 07:40:40;;;;;;;48.63;27.73;;;;;;;-5.56;72.89;99091.16;5024128;28;20233;-62
2021/12/23 07:43:31;;;;;;;52.50;26.60;;;;;;;-4.92;71.05;99105.81;5022002;28;20222;-62
2021/12/23 07:45:58;;;;;;;46.07;25.97;;;;;;;-4.07;68.93;99104.19;5021489;28;20987;-62
2021/12/23 07:48:26;;;;;;;46.83;25.73;;;;;;;-3.68;67.19;99100.91;5022507;28;20235;-63
2021/12/23 07:50:54;;;;;;;46.67;27.13;;;;;;;-5.79;71.81;99061.22;5024973;28;20231;-63
2021/12/23 07:53:21;;;;;;;48.00;24.73;;;;;;;-6.69;76.56;99088.47;5024844;28;20223;-63
2021/12/23 07:55:52;;;;;;;52.33;29.43;;;;;;;-5.35;74.35;99109.94;5026163;28;20226;-62
2021/12/23 07:58:22;;;;;;;46.50;26.63;;;;;;;-4.86;71.72;99095.88;5017542;28;20222;-63
2021/12/23 08:00:48;;;;;;;46.40;26.13;;;;;;;-6.61;76.84;99082.06;5023455;28;20232;-63
2021/12/23 08:03:15;;;;;;;49.33;26.87;;;;;;;-4.40;72.37;99121.78;5025329;28;20231;-63
2021/12/23 08:05:42;;;;;;;47.40;26.13;;;;;;;-5.46;72.28;99072.47;5023818;28;20239;-63
2021/12/23 08:08:09;;;;;;;51.60;27.93;;;;;;;-4.93;73.31;99117.13;5023548;28;20223;-63
2021/12/23 08:10:36;;;;;;;44.63;27.27;;;;;;;-6.56;77.62;99072.28;5020605;28;20227;-63
2021/12/23 08:13:04;;;;;;;49.07;29.37;;;;;;;-6.57;79.26;99101.75;5017047;28;20226;-63
2021/12/23 08:15:31;;;;;;;48.50;27.40;;;;;;;-6.36;77.23;99099.78;5026796;28;20219;-63
2021/12/23 08:17:57;;;;;;;47.70;26.27;;;;;;;-6.56;78.22;99083.50;5030571;28;20249;-61
2021/12/23 08:20:25;;;;;;;45.70;26.50;;;;;;;-6.52;78.54;99079.00;5024410;28;20222;-62
2021/12/23 08:22:52;;;;;;;49.93;26.03;;;;;;;-5.76;75.01;99071.47;5031416;28;20229;-62
2021/12/23 08:25:22;;;;;;;46.43;25.60;;;;;;;-5.67;77.90;99116.06;5024590;28;20214;-63
2021/12/23 08:27:49;;;;;;;40.93;24.33;;;;;;;-4.48;72.76;99108.38;5024229;28;20741;-63
2021/12/23 08:30:18;;;;;;;45.23;26.00;;;;;;;-5.91;75.71;99067.94;5024138;28;20240;-62
2021/12/23 08:32:46;;;;;;;48.10;26.63;;;;;;;-6.10;77.66;99075.06;5025653;28;20228;-63
2021/12/23 08:35:14;;;;;;;44.27;26.67;;;;;;;-5.93;78.54;99095.75;5025435;28;20227;-62
2021/12/23 08:37:46;;;;;;;46.37;26.63;;;;;;;-6.32;78.69;99063.22;5024920;28;20261;-63
2021/12/23 08:40:19;;;;;;;44.47;24.27;;;;;;;-6.42;79.89;99061.19;5019115;28;20232;-62
2021/12/23 08:42:47;;;;;;;39.90;23.33;;;;;;;-5.81;79.69;99101.22;5022572;28;20718;-63
2021/12/23 08:45:16;;;;;;;45.00;25.60;;;;;;;-6.45;81.04;99076.00;5006385;28;20236;-62
2021/12/23 08:47:45;;;;;;;44.93;24.30;;;;;;;-5.71;79.01;99085.03;5021954;28;20228;-62
2021/12/23 08:50:14;;;;;;;45.83;25.17;;;;;;;-6.51;80.63;99068.53;5020576;28;20220;-63
2021/12/23 08:52:41;;;;;;;47.00;25.87;;;;;;;-6.15;79.66;99075.31;5025122;28;20231;-63
2021/12/23 08:55:09;;;;;;;39.80;24.00;;;;;;;-6.33;79.41;99047.72;5021968;28;20216;-63
2021/12/23 08:57:37;;;;;;;40.03;22.83;;;;;;;-5.42;79.21;99086.94;5019379;28;20947;-63
2021/12/23 09:00:07;;;;;;;44.07;25.50;;;;;;;-5.31;78.88;99089.78;5023006;28;20237;-63
2021/12/23 09:02:34;;;;;;;50.27;25.83;;;;;;;-5.19;75.85;99057.03;5023883;28;20223;-62
2021/12/23 09:05:02;;;;;;;42.47;24.77;;;;;;;-5.32;77.19;99056.91;5024398;28;20248;-62
2021/12/23 09:07:29;;;;;;;51.63;27.03;;;;;;;-4.04;73.64;99070.16;5023525;28;20257;-62
2021/12/23 09:09:56;;;;;;;45.73;24.53;;;;;;;-3.41;69.30;99039.25;5023421;28;20777;-63
2021/12/23 09:12:23;;;;;;;47.30;27.17;;;;;;;-3.09;68.68;99047.56;5021417;28;20257;-62
2021/12/23 09:14:50;;;;;;;53.53;27.07;;;;;;;-3.41;69.16;99034.84;5038909;28;20696;-62
2021/12/23 09:17:18;;;;;;;43.33;25.30;;;;;;;-3.65;69.22;99019.88;5042978;28;20226;-62
2021/12/23 09:19:45;;;;;;;46.17;25.93;;;;;;;-3.21;68.65;99036.16;5041655;28;20224;-63
2021/12/23 09:22:12;;;;;;;46.00;26.77;;;;;;;-3.32;68.90;99026.44;5044530;28;20317;-63
2021/12/23 09:24:44;;;;;;;43.90;25.17;;;;;;;-3.66;69.25;99007.78;5044632;28;20237;-63
2021/12/23 09:35:04;;;;;;;47.00;25.97;;;;;;;-3.12;68.31;99040.78;5043875;28;20280;-62
2021/12/23 09:37:31;;;;;;;51.27;28.27;;;;;;;-2.73;68.23;99048.66;5043200;28;20230;-63
2021/12/23 09:39:59;;;;;;;46.80;27.40;;;;;;;-2.84;67.00;99018.03;5038797;28;20235;-63
2021/12/23 09:42:32;;;;;;;40.17;22.87;;;;;;;-3.09;68.18;99011.03;5035417;28;20232;-62
2021/12/23 09:45:05;;;;;;;45.10;26.50;;;;;;;-3.02;68.79;99025.38;5033999;28;20230;-62
2021/12/23 09:47:34;;;;;;;47.23;26.70;;;;;;;-2.58;67.77;99031.13;5020592;28;20231;-63
2021/12/23 09:50:06;;;;;;;44.23;25.57;;;;;;;-2.64;67.55;99032.34;5025464;28;20233;-63
2021/12/23 09:52:35;;;;;;;37.93;23.07;;;;;;;-3.13;69.73;99002.56;5027225;28;20220;-62
2021/12/23 09:55:06;;;;;;;50.63;25.83;;;;;;;-2.71;69.12;99034.56;5024956;28;20229;-63
2021/12/23 09:57:33;;;;;;;43.33;24.43;;;;;;;-3.13;69.13;99017.41;5029537;28;20878;-63
2021/12/23 10:00:00;;;;;;;44.10;25.77;;;;;;;-2.59;67.81;99032.06;5028024;28;20228;-63
2021/12/23 10:02:27;;;;;;;53.03;28.50;;;;;;;-2.28;67.88;99029.91;5023921;28;20265;-62
2021/12/23 10:04:54;;;;;;;46.07;25.37;;;;;;;-2.67;68.28;98995.19;5025376;28;20231;-63
2021/12/23 10:07:21;;;;;;;47.27;25.43;;;;;;;-2.91;70.08;99001.97;5024996;28;20618;-62
2021/12/23 10:10:08;;;;;;;43.70;25.17;;;;;;;-2.96;69.48;98998.84;5023614;28;20864;-63
2021/12/23 10:32:17;;;;;;;39.67;23.37;;;;;;;-2.72;71.10;98998.09;5023271;28;20779;-63
2021/12/23 10:37:22;;;;;;;34.77;21.23;;;;;;;-2.56;72.01;98992.69;5023043;28;20234;-60
2021/12/23 10:40:04;;;;;;;42.33;25.23;;;;;;;-2.39;71.36;98996.72;5022354;28;20227;-60
2021/12/23 10:42:32;;;;;;;37.87;22.83;;;;;;;-2.47;70.98;98980.75;5025642;28;20223;-61
2021/12/23 10:45:09;;;;;;;31.40;17.87;;;;;;;-2.59;73.07;98987.66;5022936;28;20987;-58
2021/12/23 10:48:15;;;;;;;37.53;23.17;;;;;;;-1.97;70.54;99003.28;5018204;28;20232;-59
2021/12/23 10:53:28;;;;;;;42.73;25.33;;;;;;;-2.10;70.74;98975.53;5025737;28;20254;-61
2021/12/23 10:59:19;;;;;;;35.30;21.37;;;;;;;-1.67;70.22;98975.03;5023273;28;20605;-60
2021/12/23 11:03:51;;;;;;;31.73;17.43;;;;;;;-2.69;75.00;98976.19;5054897;28;20578;-60
2021/12/23 11:06:24;;;;;;;36.50;21.53;;;;;;;-2.69;74.14;98965.75;5031362;28;20226;-60
2021/12/23 11:09:08;;;;;;;39.70;23.53;;;;;;;-2.40;73.91;98961.09;5024855;28;20744;-60
2021/12/23 11:42:13;;;;;;;37.63;20.87;;;;;;;-1.10;70.48;98882.66;5019788;28;20218;-61
2021/12/23 11:44:40;;;;;;;34.00;20.20;;;;;;;-1.25;70.84;98868.97;5017116;28;20629;-61
2021/12/23 11:47:12;;;;;;;34.80;19.73;;;;;;;-0.82;70.15;98884.97;5018631;28;20237;-61
2021/12/23 11:49:43;;;;;;;35.23;19.83;;;;;;;-1.01;69.72;98859.34;5018295;28;20238;-60
2021/12/23 11:52:10;;;;;;;31.83;20.00;;;;;;;-1.02;70.48;98857.72;5018346;28;20218;-61
2021/12/23 11:54:47;;;;;;;29.27;19.00;;;;;;;-0.86;70.38;98859.00;5016365;28;20229;-61
2021/12/23 11:57:24;;;;;;;33.50;18.27;;;;;;;-0.69;70.58;98855.06;5027318;28;20229;-61
2021/12/23 12:00:07;;;;;;;31.63;19.37;;;;;;;-0.57;69.04;98832.28;5036953;28;20251;-60
2021/12/23 12:02:34;;;;;;;28.87;16.73;;;;;;;-0.61;70.30;98833.50;5036227;28;20226;-58
2021/12/23 12:05:06;;;;;;;29.10;17.60;;;;;;;-0.55;69.07;98806.78;5037297;28;20229;-61
2021/12/23 12:07:33;;;;;;;32.80;19.27;;;;;;;-0.43;68.77;98799.72;5038489;28;20238;-60
2021/12/23 12:10:10;;;;;;;29.03;18.03;;;;;;;-0.51;68.94;98795.13;5013634;28;20239;-61
2021/12/23 12:12:57;;;;;;;30.53;18.60;;;;;;;-0.42;69.13;98797.97;5017355;28;20646;-61
2021/12/23 12:15:53;;;;;;;32.03;19.27;;;;;;;-0.36;69.53;98802.69;4998006;28;20220;-61
2021/12/23 12:18:23;;;;;;;28.67;18.30;;;;;;;-0.11;68.78;98812.81;4994254;28;21058;-61
2021/12/23 12:20:56;;;;;;;30.73;18.97;;;;;;;-0.13;68.36;98806.88;5001649;28;20221;-61
2021/12/23 12:23:36;;;;;;;33.43;21.13;;;;;;;-0.36;68.72;98793.03;5004848;28;20966;-61
2021/12/23 12:26:05;;;;;;;31.77;18.57;;;;;;;-0.45;69.47;98790.34;5001659;28;20673;-61
2021/12/23 12:28:36;;;;;;;29.93;20.03;;;;;;;-0.24;68.70;98782.50;4999353;28;20232;-61
2021/12/23 12:31:07;;;;;;;23.83;15.33;;;;;;;-0.75;69.33;98769.09;5010016;28;20233;-61
2021/12/23 12:33:40;;;;;;;33.47;20.23;;;;;;;-0.14;69.10;98792.13;5005056;28;20223;-61
2021/12/23 12:36:11;;;;;;;18.43;13.17;;;;;;;-0.54;69.82;98782.28;5003195;28;20226;-59
2021/12/23 12:38:45;;;;;;;32.57;20.17;;;;;;;-0.37;69.17;98780.91;5002308;28;20639;-61
2021/12/23 12:41:24;;;;;;;30.20;20.27;;;;;;;-0.39;69.21;98787.22;5004442;28;20606;-59
2021/12/23 12:43:57;;;;;;;29.57;19.00;;;;;;;-0.38;69.07;98781.03;5005472;28;20273;-60